sensor_id;sensor_type;location;lat;lon;timestamp;P1;durP1;ratioP1;P2;durP2;ratioP2
8540;SDS011;4308;51.294;6.590;2023-12-29T00:01:35;3.87;;;1.83;;
8540;SDS011;4308;51.294;6.590;2023-12-29T00:04:03;4.73;;;2.00;;
8540;SDS011;4308;51.294;6.590;2023-12-29T00:06:30;3.67;;;2.00;;
8540;SDS011;4308;51.294;6.590;2023-12-29T00:08:58;8.43;;;1.90;;
8540;SDS011;4308;51.294;6.590;2023-12-29T00:11:26;7.07;;;2.00;;
8540;SDS011;4308;51.294;6.590;2023-12-29T00:13:53;6.50;;;2.00;;
8540;SDS011;4308;51.294;6.590;2023-12-29T00:16:21;8.87;;;2.37;;
8540;SDS011;4308;51.294;6.590;2023-12-29T00:18:49;5.63;;;2.07;;
8540;SDS011;4308;51.294;6.590;2023-12-29T00:21:16;4.23;;;1.90;;
8540;SDS011;4308;51.294;6.590;2023-12-29T00:23:46;3.33;;;1.53;;
8540;SDS011;4308;51.294;6.590;2023-12-29T00:26:17;5.03;;;1.90;;
8540;SDS011;4308;51.294;6.590;2023-12-29T00:28:44;5.93;;;2.00;;
8540;SDS011;4308;51.294;6.590;2023-12-29T00:31:15;8.10;;;2.10;;
8540;SDS011;4308;51.294;6.590;2023-12-29T00:33:43;6.97;;;2.83;;
8540;SDS011;4308;51.294;6.590;2023-12-29T00:36:17;5.23;;;1.93;;
8540;SDS011;4308;51.294;6.590;2023-12-29T00:38:45;6.73;;;1.77;;
8540;SDS011;4308;51.294;6.590;2023-12-29T00:41:13;7.37;;;2.60;;
8540;SDS011;4308;51.294;6.590;2023-12-29T00:43:41;5.43;;;2.23;;
8540;SDS011;4308;51.294;6.590;2023-12-29T00:46:08;9.23;;;2.07;;
8540;SDS011;4308;51.294;6.590;2023-12-29T00:48:36;6.47;;;2.03;;
8540;SDS011;4308;51.294;6.590;2023-12-29T00:51:04;6.43;;;2.37;;
8540;SDS011;4308;51.294;6.590;2023-12-29T00:53:31;6.67;;;2.40;;
8540;SDS011;4308;51.294;6.590;2023-12-29T00:55:59;6.30;;;2.20;;
8540;SDS011;4308;51.294;6.590;2023-12-29T00:58:27;4.43;;;2.00;;
8540;SDS011;4308;51.294;6.590;2023-12-29T01:00:55;5.57;;;1.90;;
8540;SDS011;4308;51.294;6.590;2023-12-29T01:03:22;6.13;;;2.10;;
8540;SDS011;4308;51.294;6.590;2023-12-29T01:05:52;5.43;;;2.07;;
8540;SDS011;4308;51.294;6.590;2023-12-29T01:08:20;10.60;;;2.67;;
8540;SDS011;4308;51.294;6.590;2023-12-29T01:10:47;6.10;;;2.40;;
8540;SDS011;4308;51.294;6.590;2023-12-29T01:13:15;4.17;;;1.83;;
8540;SDS011;4308;51.294;6.590;2023-12-29T01:15:42;7.10;;;2.03;;
8540;SDS011;4308;51.294;6.590;2023-12-29T01:18:10;7.90;;;2.47;;
8540;SDS011;4308;51.294;6.590;2023-12-29T01:20:38;7.53;;;2.40;;
8540;SDS011;4308;51.294;6.590;2023-12-29T01:23:06;7.97;;;2.50;;
8540;SDS011;4308;51.294;6.590;2023-12-29T01:25:34;11.77;;;2.83;;
8540;SDS011;4308;51.294;6.590;2023-12-29T01:28:01;5.57;;;1.80;;
8540;SDS011;4308;51.294;6.590;2023-12-29T01:30:29;6.37;;;2.40;;
8540;SDS011;4308;51.294;6.590;2023-12-29T01:32:57;9.73;;;2.10;;
8540;SDS011;4308;51.294;6.590;2023-12-29T01:35:24;9.30;;;2.90;;
8540;SDS011;4308;51.294;6.590;2023-12-29T01:37:52;5.63;;;2.23;;
8540;SDS011;4308;51.294;6.590;2023-12-29T01:40:19;7.80;;;2.43;;
8540;SDS011;4308;51.294;6.590;2023-12-29T01:42:47;12.07;;;2.73;;
8540;SDS011;4308;51.294;6.590;2023-12-29T01:45:21;12.47;;;2.50;;
8540;SDS011;4308;51.294;6.590;2023-12-29T01:47:49;6.07;;;2.77;;
8540;SDS011;4308;51.294;6.590;2023-12-29T01:50:18;7.23;;;2.50;;
8540;SDS011;4308;51.294;6.590;2023-12-29T01:52:48;12.90;;;2.80;;
8540;SDS011;4308;51.294;6.590;2023-12-29T01:55:18;5.07;;;2.20;;
8540;SDS011;4308;51.294;6.590;2023-12-29T01:57:46;10.17;;;2.27;;
8540;SDS011;4308;51.294;6.590;2023-12-29T02:00:14;7.47;;;2.37;;
8540;SDS011;4308;51.294;6.590;2023-12-29T02:02:46;9.00;;;2.70;;
8540;SDS011;4308;51.294;6.590;2023-12-29T02:05:14;13.33;;;3.03;;
8540;SDS011;4308;51.294;6.590;2023-12-29T02:07:42;8.53;;;2.17;;
8540;SDS011;4308;51.294;6.590;2023-12-29T02:10:10;11.53;;;3.17;;
8540;SDS011;4308;51.294;6.590;2023-12-29T02:12:37;5.33;;;2.20;;
8540;SDS011;4308;51.294;6.590;2023-12-29T02:15:05;11.00;;;2.60;;
8540;SDS011;4308;51.294;6.590;2023-12-29T02:17:38;9.73;;;2.60;;
8540;SDS011;4308;51.294;6.590;2023-12-29T02:20:07;9.20;;;2.90;;
8540;SDS011;4308;51.294;6.590;2023-12-29T02:22:35;11.80;;;2.63;;
8540;SDS011;4308;51.294;6.590;2023-12-29T02:25:04;9.77;;;3.10;;
8540;SDS011;4308;51.294;6.590;2023-12-29T02:32:30;6.60;;;2.67;;
8540;SDS011;4308;51.294;6.590;2023-12-29T02:35:01;11.17;;;2.20;;
8540;SDS011;4308;51.294;6.590;2023-12-29T02:37:29;6.33;;;2.40;;
8540;SDS011;4308;51.294;6.590;2023-12-29T02:39:59;7.83;;;2.60;;
8540;SDS011;4308;51.294;6.590;2023-12-29T02:42:27;5.67;;;2.40;;
8540;SDS011;4308;51.294;6.590;2023-12-29T02:44:55;7.50;;;2.57;;
8540;SDS011;4308;51.294;6.590;2023-12-29T02:47:22;5.17;;;2.40;;
8540;SDS011;4308;51.294;6.590;2023-12-29T02:49:50;8.00;;;2.87;;
8540;SDS011;4308;51.294;6.590;2023-12-29T02:52:18;9.17;;;2.23;;
8540;SDS011;4308;51.294;6.590;2023-12-29T02:54:46;10.37;;;2.73;;
8540;SDS011;4308;51.294;6.590;2023-12-29T02:57:13;7.37;;;2.70;;
8540;SDS011;4308;51.294;6.590;2023-12-29T02:59:41;8.30;;;2.47;;
8540;SDS011;4308;51.294;6.590;2023-12-29T03:02:08;7.00;;;2.77;;
8540;SDS011;4308;51.294;6.590;2023-12-29T03:04:36;6.23;;;2.23;;
8540;SDS011;4308;51.294;6.590;2023-12-29T03:07:04;9.57;;;2.33;;
8540;SDS011;4308;51.294;6.590;2023-12-29T03:09:31;7.47;;;2.63;;
8540;SDS011;4308;51.294;6.590;2023-12-29T03:12:02;4.93;;;2.30;;
8540;SDS011;4308;51.294;6.590;2023-12-29T03:14:29;5.43;;;2.70;;
8540;SDS011;4308;51.294;6.590;2023-12-29T03:16:57;6.87;;;2.53;;
8540;SDS011;4308;51.294;6.590;2023-12-29T03:19:25;6.97;;;2.60;;
8540;SDS011;4308;51.294;6.590;2023-12-29T03:21:52;8.27;;;2.53;;
8540;SDS011;4308;51.294;6.590;2023-12-29T03:24:20;8.27;;;3.03;;
8540;SDS011;4308;51.294;6.590;2023-12-29T03:26:48;7.33;;;2.40;;
8540;SDS011;4308;51.294;6.590;2023-12-29T03:29:15;7.60;;;2.80;;
8540;SDS011;4308;51.294;6.590;2023-12-29T03:31:43;7.30;;;2.50;;
8540;SDS011;4308;51.294;6.590;2023-12-29T03:34:11;6.77;;;2.37;;
8540;SDS011;4308;51.294;6.590;2023-12-29T03:36:39;9.00;;;2.30;;
8540;SDS011;4308;51.294;6.590;2023-12-29T03:39:06;6.83;;;2.13;;
8540;SDS011;4308;51.294;6.590;2023-12-29T03:41:34;7.37;;;2.23;;
8540;SDS011;4308;51.294;6.590;2023-12-29T03:44:01;5.00;;;2.20;;
8540;SDS011;4308;51.294;6.590;2023-12-29T03:46:29;11.67;;;2.23;;
8540;SDS011;4308;51.294;6.590;2023-12-29T03:48:57;9.47;;;2.43;;
8540;SDS011;4308;51.294;6.590;2023-12-29T03:51:25;12.00;;;2.33;;
8540;SDS011;4308;51.294;6.590;2023-12-29T03:53:52;5.87;;;2.33;;
8540;SDS011;4308;51.294;6.590;2023-12-29T03:56:20;9.60;;;2.80;;
8540;SDS011;4308;51.294;6.590;2023-12-29T03:58:47;8.93;;;2.57;;
8540;SDS011;4308;51.294;6.590;2023-12-29T04:01:15;6.77;;;2.30;;
8540;SDS011;4308;51.294;6.590;2023-12-29T04:03:44;8.43;;;2.47;;
8540;SDS011;4308;51.294;6.590;2023-12-29T04:06:11;6.80;;;1.87;;
8540;SDS011;4308;51.294;6.590;2023-12-29T04:08:39;7.83;;;2.37;;
8540;SDS011;4308;51.294;6.590;2023-12-29T04:11:06;6.60;;;2.20;;
8540;SDS011;4308;51.294;6.590;2023-12-29T04:13:34;13.43;;;2.67;;
8540;SDS011;4308;51.294;6.590;2023-12-29T04:16:02;12.37;;;1.90;;
8540;SDS011;4308;51.294;6.590;2023-12-29T04:18:29;10.37;;;2.47;;
8540;SDS011;4308;51.294;6.590;2023-12-29T04:20:57;8.63;;;2.20;;
8540;SDS011;4308;51.294;6.590;2023-12-29T04:23:25;6.47;;;2.30;;
8540;SDS011;4308;51.294;6.590;2023-12-29T04:25:52;7.60;;;2.30;;
8540;SDS011;4308;51.294;6.590;2023-12-29T04:28:20;8.00;;;2.00;;
8540;SDS011;4308;51.294;6.590;2023-12-29T04:30:48;7.87;;;2.23;;
8540;SDS011;4308;51.294;6.590;2023-12-29T04:33:15;9.13;;;2.30;;
8540;SDS011;4308;51.294;6.590;2023-12-29T04:35:43;10.10;;;2.67;;
8540;SDS011;4308;51.294;6.590;2023-12-29T04:38:11;7.33;;;2.53;;
8540;SDS011;4308;51.294;6.590;2023-12-29T04:40:38;8.40;;;2.33;;
8540;SDS011;4308;51.294;6.590;2023-12-29T04:43:06;6.77;;;2.20;;
8540;SDS011;4308;51.294;6.590;2023-12-29T04:45:33;7.27;;;2.10;;
8540;SDS011;4308;51.294;6.590;2023-12-29T04:48:01;7.27;;;2.43;;
8540;SDS011;4308;51.294;6.590;2023-12-29T04:50:29;10.57;;;2.63;;
8540;SDS011;4308;51.294;6.590;2023-12-29T04:52:57;7.37;;;2.20;;
8540;SDS011;4308;51.294;6.590;2023-12-29T04:55:25;8.93;;;2.23;;
8540;SDS011;4308;51.294;6.590;2023-12-29T04:57:52;11.37;;;2.80;;
8540;SDS011;4308;51.294;6.590;2023-12-29T05:00:20;7.37;;;2.13;;
8540;SDS011;4308;51.294;6.590;2023-12-29T05:02:47;8.20;;;2.33;;
8540;SDS011;4308;51.294;6.590;2023-12-29T05:05:15;10.20;;;2.50;;
8540;SDS011;4308;51.294;6.590;2023-12-29T05:07:43;11.77;;;2.67;;
8540;SDS011;4308;51.294;6.590;2023-12-29T05:10:10;9.13;;;2.20;;
8540;SDS011;4308;51.294;6.590;2023-12-29T05:12:38;12.63;;;2.43;;
8540;SDS011;4308;51.294;6.590;2023-12-29T05:15:06;11.17;;;2.87;;
8540;SDS011;4308;51.294;6.590;2023-12-29T05:17:33;10.30;;;2.50;;
8540;SDS011;4308;51.294;6.590;2023-12-29T05:20:01;8.97;;;2.40;;
8540;SDS011;4308;51.294;6.590;2023-12-29T05:22:29;7.23;;;2.00;;
8540;SDS011;4308;51.294;6.590;2023-12-29T05:24:56;7.77;;;2.50;;
8540;SDS011;4308;51.294;6.590;2023-12-29T05:27:24;10.37;;;2.43;;
8540;SDS011;4308;51.294;6.590;2023-12-29T05:29:52;10.07;;;2.80;;
8540;SDS011;4308;51.294;6.590;2023-12-29T05:32:19;9.40;;;2.90;;
8540;SDS011;4308;51.294;6.590;2023-12-29T05:34:47;8.73;;;2.63;;
8540;SDS011;4308;51.294;6.590;2023-12-29T05:37:15;5.90;;;2.10;;
8540;SDS011;4308;51.294;6.590;2023-12-29T05:39:42;9.47;;;2.43;;
8540;SDS011;4308;51.294;6.590;2023-12-29T05:42:10;7.13;;;1.67;;
8540;SDS011;4308;51.294;6.590;2023-12-29T05:44:38;8.63;;;2.10;;
8540;SDS011;4308;51.294;6.590;2023-12-29T05:47:05;5.53;;;2.10;;
8540;SDS011;4308;51.294;6.590;2023-12-29T05:49:33;7.80;;;2.07;;
8540;SDS011;4308;51.294;6.590;2023-12-29T05:52:01;11.03;;;2.17;;
8540;SDS011;4308;51.294;6.590;2023-12-29T05:54:29;7.63;;;2.23;;
8540;SDS011;4308;51.294;6.590;2023-12-29T05:56:58;6.53;;;2.20;;
8540;SDS011;4308;51.294;6.590;2023-12-29T05:59:25;8.73;;;2.30;;
8540;SDS011;4308;51.294;6.590;2023-12-29T06:01:53;12.30;;;2.70;;
8540;SDS011;4308;51.294;6.590;2023-12-29T06:04:21;11.97;;;2.60;;
8540;SDS011;4308;51.294;6.590;2023-12-29T06:06:49;6.77;;;2.13;;
8540;SDS011;4308;51.294;6.590;2023-12-29T06:09:17;8.27;;;2.33;;
8540;SDS011;4308;51.294;6.590;2023-12-29T06:11:45;9.90;;;2.53;;
8540;SDS011;4308;51.294;6.590;2023-12-29T06:14:16;7.03;;;2.30;;
8540;SDS011;4308;51.294;6.590;2023-12-29T06:16:43;8.73;;;2.47;;
8540;SDS011;4308;51.294;6.590;2023-12-29T06:19:11;10.03;;;2.40;;
8540;SDS011;4308;51.294;6.590;2023-12-29T06:21:42;9.17;;;2.13;;
8540;SDS011;4308;51.294;6.590;2023-12-29T06:24:10;8.20;;;2.23;;
8540;SDS011;4308;51.294;6.590;2023-12-29T06:26:37;8.87;;;2.63;;
8540;SDS011;4308;51.294;6.590;2023-12-29T06:29:05;11.43;;;2.30;;
8540;SDS011;4308;51.294;6.590;2023-12-29T06:31:33;8.90;;;2.50;;
8540;SDS011;4308;51.294;6.590;2023-12-29T06:34:00;6.07;;;2.00;;
8540;SDS011;4308;51.294;6.590;2023-12-29T06:36:28;7.73;;;2.57;;
8540;SDS011;4308;51.294;6.590;2023-12-29T06:38:56;13.67;;;2.57;;
8540;SDS011;4308;51.294;6.590;2023-12-29T06:41:23;7.53;;;2.17;;
8540;SDS011;4308;51.294;6.590;2023-12-29T06:43:51;8.07;;;2.53;;
8540;SDS011;4308;51.294;6.590;2023-12-29T06:46:19;6.97;;;1.97;;
8540;SDS011;4308;51.294;6.590;2023-12-29T06:48:46;7.43;;;2.20;;
8540;SDS011;4308;51.294;6.590;2023-12-29T06:51:17;9.13;;;2.20;;
8540;SDS011;4308;51.294;6.590;2023-12-29T06:53:46;10.10;;;2.57;;
8540;SDS011;4308;51.294;6.590;2023-12-29T06:56:17;6.63;;;2.33;;
8540;SDS011;4308;51.294;6.590;2023-12-29T06:58:45;9.23;;;1.90;;
8540;SDS011;4308;51.294;6.590;2023-12-29T07:01:12;8.80;;;2.40;;
8540;SDS011;4308;51.294;6.590;2023-12-29T07:03:40;12.73;;;2.57;;
8540;SDS011;4308;51.294;6.590;2023-12-29T07:06:09;9.50;;;3.13;;
8540;SDS011;4308;51.294;6.590;2023-12-29T07:08:37;5.77;;;2.33;;
8540;SDS011;4308;51.294;6.590;2023-12-29T07:11:08;7.03;;;2.27;;
8540;SDS011;4308;51.294;6.590;2023-12-29T07:13:36;10.93;;;2.57;;
8540;SDS011;4308;51.294;6.590;2023-12-29T07:16:04;10.70;;;2.67;;
8540;SDS011;4308;51.294;6.590;2023-12-29T07:18:32;9.23;;;2.30;;
8540;SDS011;4308;51.294;6.590;2023-12-29T07:21:00;8.63;;;2.50;;
8540;SDS011;4308;51.294;6.590;2023-12-29T07:23:27;5.97;;;2.03;;
8540;SDS011;4308;51.294;6.590;2023-12-29T07:25:55;9.57;;;2.00;;
8540;SDS011;4308;51.294;6.590;2023-12-29T07:28:22;6.93;;;2.10;;
8540;SDS011;4308;51.294;6.590;2023-12-29T07:30:50;8.40;;;2.13;;
8540;SDS011;4308;51.294;6.590;2023-12-29T07:33:18;7.97;;;1.80;;
8540;SDS011;4308;51.294;6.590;2023-12-29T07:35:46;11.30;;;2.37;;
8540;SDS011;4308;51.294;6.590;2023-12-29T07:38:13;7.87;;;2.20;;
8540;SDS011;4308;51.294;6.590;2023-12-29T07:40:41;6.70;;;2.10;;
8540;SDS011;4308;51.294;6.590;2023-12-29T07:43:09;6.67;;;2.40;;
8540;SDS011;4308;51.294;6.590;2023-12-29T07:45:36;8.27;;;2.30;;
8540;SDS011;4308;51.294;6.590;2023-12-29T07:48:04;7.50;;;2.40;;
8540;SDS011;4308;51.294;6.590;2023-12-29T07:50:36;8.83;;;2.10;;
8540;SDS011;4308;51.294;6.590;2023-12-29T07:53:04;12.63;;;3.20;;
8540;SDS011;4308;51.294;6.590;2023-12-29T07:55:31;10.53;;;2.67;;
8540;SDS011;4308;51.294;6.590;2023-12-29T07:57:59;5.53;;;2.03;;
8540;SDS011;4308;51.294;6.590;2023-12-29T08:00:27;7.57;;;2.50;;
8540;SDS011;4308;51.294;6.590;2023-12-29T08:02:55;6.30;;;1.47;;
8540;SDS011;4308;51.294;6.590;2023-12-29T08:05:22;7.83;;;2.27;;
8540;SDS011;4308;51.294;6.590;2023-12-29T08:07:50;10.47;;;2.33;;
8540;SDS011;4308;51.294;6.590;2023-12-29T08:10:18;7.00;;;2.50;;
8540;SDS011;4308;51.294;6.590;2023-12-29T08:12:45;10.77;;;2.10;;
8540;SDS011;4308;51.294;6.590;2023-12-29T08:15:13;9.70;;;2.53;;
8540;SDS011;4308;51.294;6.590;2023-12-29T08:17:41;7.10;;;1.97;;
8540;SDS011;4308;51.294;6.590;2023-12-29T08:20:09;6.90;;;2.00;;
8540;SDS011;4308;51.294;6.590;2023-12-29T08:22:37;7.37;;;2.13;;
8540;SDS011;4308;51.294;6.590;2023-12-29T08:25:04;7.13;;;2.30;;
8540;SDS011;4308;51.294;6.590;2023-12-29T08:27:32;7.57;;;2.30;;
8540;SDS011;4308;51.294;6.590;2023-12-29T08:30:00;7.67;;;2.47;;
8540;SDS011;4308;51.294;6.590;2023-12-29T08:32:27;8.97;;;2.60;;
8540;SDS011;4308;51.294;6.590;2023-12-29T08:34:55;5.90;;;1.87;;
8540;SDS011;4308;51.294;6.590;2023-12-29T08:37:23;5.33;;;1.87;;
8540;SDS011;4308;51.294;6.590;2023-12-29T08:39:50;4.17;;;1.73;;
8540;SDS011;4308;51.294;6.590;2023-12-29T08:42:18;5.93;;;2.07;;
8540;SDS011;4308;51.294;6.590;2023-12-29T08:44:45;4.63;;;1.47;;
8540;SDS011;4308;51.294;6.590;2023-12-29T08:47:13;1.93;;;1.53;;
8540;SDS011;4308;51.294;6.590;2023-12-29T08:49:41;8.00;;;1.70;;
8540;SDS011;4308;51.294;6.590;2023-12-29T08:52:09;5.60;;;1.67;;
8540;SDS011;4308;51.294;6.590;2023-12-29T08:54:37;4.73;;;1.87;;
8540;SDS011;4308;51.294;6.590;2023-12-29T08:57:05;3.70;;;1.60;;
8540;SDS011;4308;51.294;6.590;2023-12-29T08:59:33;3.90;;;1.40;;
8540;SDS011;4308;51.294;6.590;2023-12-29T09:02:00;2.40;;;1.47;;
8540;SDS011;4308;51.294;6.590;2023-12-29T09:04:28;1.60;;;1.00;;
8540;SDS011;4308;51.294;6.590;2023-12-29T09:06:56;2.43;;;1.20;;
8540;SDS011;4308;51.294;6.590;2023-12-29T09:09:23;2.90;;;1.00;;
8540;SDS011;4308;51.294;6.590;2023-12-29T09:11:51;2.47;;;1.10;;
8540;SDS011;4308;51.294;6.590;2023-12-29T09:14:19;2.57;;;1.17;;
8540;SDS011;4308;51.294;6.590;2023-12-29T09:16:46;1.97;;;1.27;;
8540;SDS011;4308;51.294;6.590;2023-12-29T09:19:14;2.23;;;1.00;;
8540;SDS011;4308;51.294;6.590;2023-12-29T09:21:56;1.27;;;1.10;;
8540;SDS011;4308;51.294;6.590;2023-12-29T09:24:24;2.93;;;1.87;;
8540;SDS011;4308;51.294;6.590;2023-12-29T09:26:52;1.33;;;1.00;;
8540;SDS011;4308;51.294;6.590;2023-12-29T09:29:19;1.67;;;1.03;;
8540;SDS011;4308;51.294;6.590;2023-12-29T09:31:47;3.50;;;1.00;;
8540;SDS011;4308;51.294;6.590;2023-12-29T09:34:17;2.13;;;1.10;;
8540;SDS011;4308;51.294;6.590;2023-12-29T09:36:45;2.77;;;0.90;;
8540;SDS011;4308;51.294;6.590;2023-12-29T09:39:13;2.67;;;1.20;;
8540;SDS011;4308;51.294;6.590;2023-12-29T09:41:42;3.83;;;0.97;;
8540;SDS011;4308;51.294;6.590;2023-12-29T09:44:13;2.07;;;0.90;;
8540;SDS011;4308;51.294;6.590;2023-12-29T09:46:41;1.20;;;0.90;;
8540;SDS011;4308;51.294;6.590;2023-12-29T09:49:09;1.43;;;0.80;;
8540;SDS011;4308;51.294;6.590;2023-12-29T09:51:38;1.23;;;1.00;;
8540;SDS011;4308;51.294;6.590;2023-12-29T09:54:08;1.67;;;1.20;;
8540;SDS011;4308;51.294;6.590;2023-12-29T09:56:40;3.80;;;1.40;;
8540;SDS011;4308;51.294;6.590;2023-12-29T09:59:09;4.63;;;1.20;;
8540;SDS011;4308;51.294;6.590;2023-12-29T10:01:37;1.97;;;1.13;;
8540;SDS011;4308;51.294;6.590;2023-12-29T10:04:05;2.70;;;1.43;;
8540;SDS011;4308;51.294;6.590;2023-12-29T10:06:34;2.63;;;1.20;;
8540;SDS011;4308;51.294;6.590;2023-12-29T10:09:03;3.77;;;1.30;;
8540;SDS011;4308;51.294;6.590;2023-12-29T10:11:31;5.03;;;1.60;;
8540;SDS011;4308;51.294;6.590;2023-12-29T10:14:03;3.80;;;1.40;;
8540;SDS011;4308;51.294;6.590;2023-12-29T10:16:41;2.57;;;1.40;;
8540;SDS011;4308;51.294;6.590;2023-12-29T10:19:45;6.23;;;1.90;;
8540;SDS011;4308;51.294;6.590;2023-12-29T10:22:24;5.60;;;1.77;;
8540;SDS011;4308;51.294;6.590;2023-12-29T10:24:53;4.20;;;1.50;;
8540;SDS011;4308;51.294;6.590;2023-12-29T10:27:21;8.27;;;2.07;;
8540;SDS011;4308;51.294;6.590;2023-12-29T10:29:49;4.67;;;1.70;;
8540;SDS011;4308;51.294;6.590;2023-12-29T10:32:16;2.67;;;1.77;;
8540;SDS011;4308;51.294;6.590;2023-12-29T10:34:44;4.50;;;1.60;;
8540;SDS011;4308;51.294;6.590;2023-12-29T10:37:12;8.03;;;1.63;;
8540;SDS011;4308;51.294;6.590;2023-12-29T10:39:55;2.50;;;1.50;;
8540;SDS011;4308;51.294;6.590;2023-12-29T10:42:23;4.47;;;1.63;;
8540;SDS011;4308;51.294;6.590;2023-12-29T10:45:04;3.60;;;1.30;;
8540;SDS011;4308;51.294;6.590;2023-12-29T10:47:31;2.77;;;1.17;;
8540;SDS011;4308;51.294;6.590;2023-12-29T10:49:59;4.87;;;1.50;;
8540;SDS011;4308;51.294;6.590;2023-12-29T10:52:27;3.37;;;1.17;;
8540;SDS011;4308;51.294;6.590;2023-12-29T10:55:05;3.13;;;1.10;;
8540;SDS011;4308;51.294;6.590;2023-12-29T10:57:33;3.30;;;1.30;;
8540;SDS011;4308;51.294;6.590;2023-12-29T11:00:00;4.00;;;1.40;;
8540;SDS011;4308;51.294;6.590;2023-12-29T11:02:28;3.57;;;1.40;;
8540;SDS011;4308;51.294;6.590;2023-12-29T11:05:05;3.87;;;1.53;;
8540;SDS011;4308;51.294;6.590;2023-12-29T11:07:37;4.70;;;1.87;;
8540;SDS011;4308;51.294;6.590;2023-12-29T11:10:06;6.80;;;1.60;;
8540;SDS011;4308;51.294;6.590;2023-12-29T11:12:37;6.27;;;1.50;;
8540;SDS011;4308;51.294;6.590;2023-12-29T11:15:06;4.43;;;1.70;;
8540;SDS011;4308;51.294;6.590;2023-12-29T11:17:34;6.33;;;1.60;;
8540;SDS011;4308;51.294;6.590;2023-12-29T11:20:03;5.00;;;1.90;;
8540;SDS011;4308;51.294;6.590;2023-12-29T11:22:31;4.43;;;1.70;;
8540;SDS011;4308;51.294;6.590;2023-12-29T11:24:59;8.50;;;1.73;;
8540;SDS011;4308;51.294;6.590;2023-12-29T11:27:31;5.07;;;1.70;;
8540;SDS011;4308;51.294;6.590;2023-12-29T11:30:02;6.57;;;1.97;;
8540;SDS011;4308;51.294;6.590;2023-12-29T11:33:34;5.07;;;1.47;;
8540;SDS011;4308;51.294;6.590;2023-12-29T11:35:37;9.83;;;2.63;;
8540;SDS011;4308;51.294;6.590;2023-12-29T11:43:13;4.90;;;1.77;;
8540;SDS011;4308;51.294;6.590;2023-12-29T11:45:42;4.47;;;1.70;;
8540;SDS011;4308;51.294;6.590;2023-12-29T11:48:10;4.37;;;2.27;;
8540;SDS011;4308;51.294;6.590;2023-12-29T11:50:38;5.63;;;2.10;;
8540;SDS011;4308;51.294;6.590;2023-12-29T11:53:07;8.00;;;4.67;;
8540;SDS011;4308;51.294;6.590;2023-12-29T11:55:35;7.27;;;3.00;;
8540;SDS011;4308;51.294;6.590;2023-12-29T11:58:04;6.70;;;2.30;;
8540;SDS011;4308;51.294;6.590;2023-12-29T12:00:50;8.30;;;3.10;;
8540;SDS011;4308;51.294;6.590;2023-12-29T12:05:46;6.20;;;2.70;;
8540;SDS011;4308;51.294;6.590;2023-12-29T12:08:27;7.80;;;3.13;;
8540;SDS011;4308;51.294;6.590;2023-12-29T12:10:56;4.40;;;2.03;;
8540;SDS011;4308;51.294;6.590;2023-12-29T12:13:42;4.23;;;1.80;;
8540;SDS011;4308;51.294;6.590;2023-12-29T12:16:56;4.87;;;1.70;;
8540;SDS011;4308;51.294;6.590;2023-12-29T12:18:58;2.27;;;1.10;;
8540;SDS011;4308;51.294;6.590;2023-12-29T12:21:26;3.90;;;1.60;;
8540;SDS011;4308;51.294;6.590;2023-12-29T12:23:54;5.07;;;1.40;;
8540;SDS011;4308;51.294;6.590;2023-12-29T12:26:22;2.93;;;1.40;;
8540;SDS011;4308;51.294;6.590;2023-12-29T12:28:52;3.47;;;1.43;;
8540;SDS011;4308;51.294;6.590;2023-12-29T12:31:20;3.70;;;1.70;;
8540;SDS011;4308;51.294;6.590;2023-12-29T12:33:57;3.17;;;1.70;;
8540;SDS011;4308;51.294;6.590;2023-12-29T12:36:25;6.47;;;3.33;;
8540;SDS011;4308;51.294;6.590;2023-12-29T12:38:54;6.03;;;2.10;;
8540;SDS011;4308;51.294;6.590;2023-12-29T12:41:25;5.23;;;1.80;;
8540;SDS011;4308;51.294;6.590;2023-12-29T12:46:23;4.07;;;2.03;;
8540;SDS011;4308;51.294;6.590;2023-12-29T12:48:51;4.27;;;2.13;;
8540;SDS011;4308;51.294;6.590;2023-12-29T12:51:19;5.30;;;2.40;;
8540;SDS011;4308;51.294;6.590;2023-12-29T12:53:47;2.67;;;1.93;;
8540;SDS011;4308;51.294;6.590;2023-12-29T12:56:16;2.50;;;1.90;;
8540;SDS011;4308;51.294;6.590;2023-12-29T12:58:43;2.90;;;1.47;;
8540;SDS011;4308;51.294;6.590;2023-12-29T13:01:11;2.07;;;1.40;;
8540;SDS011;4308;51.294;6.590;2023-12-29T13:03:40;3.73;;;1.80;;
8540;SDS011;4308;51.294;6.590;2023-12-29T13:06:08;3.37;;;2.00;;
8540;SDS011;4308;51.294;6.590;2023-12-29T13:08:35;2.83;;;1.70;;
8540;SDS011;4308;51.294;6.590;2023-12-29T13:11:09;1.80;;;1.57;;
8540;SDS011;4308;51.294;6.590;2023-12-29T13:13:41;6.00;;;1.90;;
8540;SDS011;4308;51.294;6.590;2023-12-29T13:16:08;5.37;;;2.50;;
8540;SDS011;4308;51.294;6.590;2023-12-29T13:18:36;4.60;;;2.80;;
8540;SDS011;4308;51.294;6.590;2023-12-29T13:21:04;5.67;;;2.10;;
8540;SDS011;4308;51.294;6.590;2023-12-29T13:23:33;5.67;;;1.60;;
8540;SDS011;4308;51.294;6.590;2023-12-29T13:26:07;6.13;;;1.83;;
8540;SDS011;4308;51.294;6.590;2023-12-29T13:28:36;5.97;;;2.30;;
8540;SDS011;4308;51.294;6.590;2023-12-29T13:31:07;5.03;;;2.20;;
8540;SDS011;4308;51.294;6.590;2023-12-29T13:38:53;3.70;;;2.13;;
8540;SDS011;4308;51.294;6.590;2023-12-29T13:41:23;5.07;;;2.30;;
8540;SDS011;4308;51.294;6.590;2023-12-29T13:43:52;6.07;;;2.03;;
8540;SDS011;4308;51.294;6.590;2023-12-29T13:46:21;3.67;;;1.40;;
8540;SDS011;4308;51.294;6.590;2023-12-29T13:48:49;2.37;;;1.57;;
8540;SDS011;4308;51.294;6.590;2023-12-29T13:51:17;5.07;;;1.93;;
8540;SDS011;4308;51.294;6.590;2023-12-29T13:53:49;4.33;;;2.00;;
8540;SDS011;4308;51.294;6.590;2023-12-29T13:56:24;6.23;;;1.97;;
8540;SDS011;4308;51.294;6.590;2023-12-29T13:58:52;4.20;;;1.87;;
8540;SDS011;4308;51.294;6.590;2023-12-29T14:01:19;5.53;;;2.17;;
8540;SDS011;4308;51.294;6.590;2023-12-29T14:03:51;1.60;;;1.40;;
8540;SDS011;4308;51.294;6.590;2023-12-29T14:06:26;5.03;;;1.83;;
8540;SDS011;4308;51.294;6.590;2023-12-29T14:08:54;2.70;;;1.30;;
8540;SDS011;4308;51.294;6.590;2023-12-29T14:11:22;4.07;;;1.93;;
8540;SDS011;4308;51.294;6.590;2023-12-29T14:13:51;2.63;;;1.30;;
8540;SDS011;4308;51.294;6.590;2023-12-29T14:16:18;4.63;;;1.67;;
8540;SDS011;4308;51.294;6.590;2023-12-29T14:18:55;2.70;;;1.60;;
8540;SDS011;4308;51.294;6.590;2023-12-29T14:21:26;6.03;;;1.53;;
8540;SDS011;4308;51.294;6.590;2023-12-29T14:24:12;2.97;;;1.40;;
8540;SDS011;4308;51.294;6.590;2023-12-29T14:26:57;3.70;;;1.40;;
8540;SDS011;4308;51.294;6.590;2023-12-29T14:29:25;2.63;;;1.20;;
8540;SDS011;4308;51.294;6.590;2023-12-29T14:31:53;3.03;;;1.20;;
8540;SDS011;4308;51.294;6.590;2023-12-29T14:34:21;2.60;;;1.03;;
8540;SDS011;4308;51.294;6.590;2023-12-29T14:36:49;2.83;;;1.10;;
8540;SDS011;4308;51.294;6.590;2023-12-29T14:39:17;1.73;;;1.17;;
8540;SDS011;4308;51.294;6.590;2023-12-29T14:41:44;4.63;;;2.00;;
8540;SDS011;4308;51.294;6.590;2023-12-29T14:44:12;4.27;;;1.87;;
8540;SDS011;4308;51.294;6.590;2023-12-29T14:46:40;1.73;;;1.63;;
8540;SDS011;4308;51.294;6.590;2023-12-29T14:49:08;4.13;;;1.60;;
8540;SDS011;4308;51.294;6.590;2023-12-29T14:51:35;1.67;;;1.17;;
8540;SDS011;4308;51.294;6.590;2023-12-29T14:54:03;3.60;;;1.20;;
8540;SDS011;4308;51.294;6.590;2023-12-29T14:56:31;2.87;;;1.30;;
8540;SDS011;4308;51.294;6.590;2023-12-29T14:58:58;3.03;;;1.57;;
8540;SDS011;4308;51.294;6.590;2023-12-29T15:01:26;4.33;;;1.60;;
8540;SDS011;4308;51.294;6.590;2023-12-29T15:03:54;2.13;;;1.37;;
8540;SDS011;4308;51.294;6.590;2023-12-29T15:06:25;3.20;;;2.10;;
8540;SDS011;4308;51.294;6.590;2023-12-29T15:08:52;2.50;;;1.30;;
8540;SDS011;4308;51.294;6.590;2023-12-29T15:11:21;3.73;;;1.70;;
8540;SDS011;4308;51.294;6.590;2023-12-29T15:13:49;3.63;;;1.73;;
8540;SDS011;4308;51.294;6.590;2023-12-29T15:16:20;5.10;;;1.93;;
8540;SDS011;4308;51.294;6.590;2023-12-29T15:18:48;3.97;;;3.33;;
8540;SDS011;4308;51.294;6.590;2023-12-29T15:21:16;1.73;;;1.60;;
8540;SDS011;4308;51.294;6.590;2023-12-29T15:23:43;2.77;;;1.80;;
8540;SDS011;4308;51.294;6.590;2023-12-29T15:26:11;3.97;;;2.10;;
8540;SDS011;4308;51.294;6.590;2023-12-29T15:28:39;5.03;;;2.00;;
8540;SDS011;4308;51.294;6.590;2023-12-29T15:31:09;3.33;;;1.70;;
8540;SDS011;4308;51.294;6.590;2023-12-29T15:33:37;4.13;;;1.53;;
8540;SDS011;4308;51.294;6.590;2023-12-29T15:36:05;3.97;;;1.57;;
8540;SDS011;4308;51.294;6.590;2023-12-29T15:38:33;4.80;;;1.80;;
8540;SDS011;4308;51.294;6.590;2023-12-29T15:41:00;3.80;;;1.80;;
8540;SDS011;4308;51.294;6.590;2023-12-29T15:43:28;2.77;;;1.90;;
8540;SDS011;4308;51.294;6.590;2023-12-29T15:45:56;4.60;;;1.50;;